Overview Statistics Trail Chart Weather Telemetry Raw packets
 

This is the latest recevied weather packets stored in our database for station/object N7BTW-13. If no packets are shown the sender has not sent any weather packets the latest 10 day(s).

<< 22 23 24 25 26 27 28 >>
Time Temp. Humidity Pressure Rain* Wind** Luminosity Snow
1788293407 19.44° C 74% - 0 mm - - -
1788292810 19.44° C 75% - 0 mm - - -
1788292211 20° C 72% - 0 mm - - -
1788291607 18.89° C 75% - 0 mm - - -
1788291007 18.89° C 76% - 0 mm - - -
1788290408 18.89° C 77% - 0 mm - - -
1788289807 18.89° C 76% - 0 mm - - -
1788289209 18.89° C 75% - 0 mm - - -
1788288611 19.44° C 74% - 0 mm - - -
1788288011 19.44° C 76% - 0 mm - - -
1788287408 18.89° C 78% - 0 mm - - -
1788286808 18.33° C 80% - 0 mm - - -
1788286206 18.33° C 82% - 0 mm - - -
1788285606 18.89° C 83% - 0 mm - - -
1788285009 17.78° C 86% - 0 mm - - -
1788284406 16.67° C 89% - 0 mm - - -
1788283806 16.67° C 90% - 0 mm - - -
1788283207 16.67° C 92% - 0 mm - - -
1788282609 16.11° C 93% - 0 mm - - -
1788282008 16.11° C 95% - 0 mm - - -
1788281411 15.56° C 97% - 0 mm - - -
1788280806 15.56° C 96% - 0 mm - - -
1788280211 15.56° C 96% - 0 mm - - -
1788279606 15.56° C 96% - 0 mm - - -
1788279008 15.56° C 97% - 0 mm - - -

* Rain latest hour (hover to see other rain measurements)
** Current wind speed in m/s (hover to see current wind gust speed)